createdAt,value
2023-01-27T00:09:17.691Z,36.30
2023-01-27T00:18:00.088Z,36.30
2023-01-27T00:25:48.151Z,36.30
2023-01-27T00:32:55.212Z,36.30
2023-01-27T00:43:54.336Z,36.30
2023-01-27T00:50:42.403Z,36.90
2023-01-27T00:53:47.317Z,36.30
2023-01-27T00:56:54.400Z,36.30
2023-01-27T01:00:06.431Z,36.30
2023-01-27T01:03:06.633Z,36.30
2023-01-27T01:06:06.549Z,36.30
2023-01-27T01:09:12.583Z,36.20
2023-01-27T01:12:24.557Z,36.30
2023-01-27T01:15:30.633Z,36.30
2023-01-27T01:18:42.619Z,36.30
2023-01-27T01:21:54.650Z,36.30
2023-01-27T01:25:24.686Z,36.30
2023-01-27T01:28:36.753Z,36.20
2023-01-27T01:32:00.755Z,36.20
2023-01-27T01:35:24.822Z,36.20
2023-01-27T01:38:48.591Z,36.20
2023-01-27T01:42:17.232Z,36.20
2023-01-27T01:46:11.344Z,36.20
2023-01-27T01:49:41.299Z,36.20
2023-01-27T01:53:05.333Z,36.30
2023-01-27T01:56:29.363Z,36.20
2023-01-27T01:59:59.393Z,36.20
2023-01-27T02:03:29.424Z,36.20
2023-01-27T02:06:59.464Z,36.20
2023-01-27T02:10:23.491Z,36.20
2023-01-27T02:13:50.156Z,36.20
2023-01-27T02:17:17.566Z,36.20
2023-01-27T02:20:47.597Z,36.20
2023-01-27T02:24:35.628Z,36.20
2023-01-27T02:28:05.660Z,36.20
2023-01-27T02:31:29.804Z,36.20
2023-01-27T02:34:59.736Z,36.20
2023-01-27T02:38:23.764Z,36.20
2023-01-27T02:41:51.132Z,36.20
2023-01-27T02:45:29.833Z,36.10
2023-01-27T02:48:55.463Z,36.20
2023-01-27T02:52:23.907Z,36.20
2023-01-27T02:55:47.937Z,36.20
2023-01-27T02:59:11.971Z,36.20
2023-01-27T03:02:42.027Z,36.20
2023-01-27T03:06:06.025Z,36.20
2023-01-27T03:09:30.052Z,36.20
2023-01-27T03:12:55.673Z,36.20
2023-01-27T03:16:19.702Z,36.20
2023-01-27T03:20:18.151Z,36.20
2023-01-27T03:23:48.177Z,36.20
2023-01-27T03:27:18.209Z,36.20
2023-01-27T03:30:48.341Z,36.10
2023-01-27T03:34:12.265Z,36.10
2023-01-27T03:37:48.305Z,36.10
2023-01-27T03:41:18.325Z,36.10
2023-01-27T03:44:48.351Z,36.10
2023-01-27T03:48:12.383Z,36.10
2023-01-27T03:51:42.411Z,36.20
2023-01-27T03:55:18.446Z,36.20
2023-01-27T03:58:48.472Z,36.00
2023-01-27T04:02:30.520Z,35.60
2023-01-27T04:06:00.534Z,35.60
2023-01-27T04:09:24.565Z,35.70
2023-01-27T04:13:00.596Z,35.80
2023-01-27T04:16:24.638Z,35.80
2023-01-27T04:19:54.594Z,36.00
2023-01-27T04:23:24.711Z,36.00
2023-01-27T06:03:26.969Z,37.50
2023-01-27T06:11:02.699Z,37.40
2023-01-27T06:17:48.099Z,37.00
2023-01-27T06:25:38.518Z,37.00
2023-01-27T06:36:57.644Z,36.60
2023-01-27T06:48:09.083Z,36.30
2023-01-27T06:51:00.405Z,36.10
2023-01-27T06:54:00.476Z,36.10
2023-01-27T06:57:00.922Z,36.10
2023-01-27T07:00:01.675Z,36.10
2023-01-27T07:02:57.878Z,36.20
2023-01-27T07:05:42.945Z,36.00
2023-01-27T07:08:27.681Z,35.90
2023-01-27T07:11:27.260Z,35.90
2023-01-27T07:14:10.596Z,35.90
2023-01-27T07:16:59.973Z,36.00
2023-01-27T07:19:41.641Z,35.90
2023-01-27T07:22:23.259Z,35.90
2023-01-27T07:25:09.368Z,35.80
2023-01-27T07:28:20.532Z,35.80
2023-01-27T07:31:09.536Z,35.80
2023-01-27T07:33:55.199Z,35.80
2023-01-27T07:36:38.961Z,35.70
2023-01-27T07:39:20.353Z,35.80
2023-01-27T07:41:54.889Z,35.60
2023-01-27T07:44:50.544Z,35.80
2023-01-27T07:47:36.946Z,35.60
2023-01-27T07:50:27.674Z,35.60
2023-01-27T07:53:10.258Z,35.60
2023-01-27T07:56:01.007Z,35.60
2023-01-27T07:58:49.028Z,35.50
2023-01-27T08:01:48.371Z,35.60
2023-01-27T08:04:31.635Z,35.90
2023-01-27T08:07:23.945Z,36.20
2023-01-27T08:10:06.111Z,35.60
2023-01-27T08:12:48.321Z,35.60
2023-01-27T08:15:38.415Z,36.30
2023-01-27T08:18:30.573Z,35.70
2023-01-27T08:21:10.778Z,35.60
2023-01-27T08:23:54.926Z,35.60
2023-01-27T08:26:38.843Z,35.60
2023-01-27T08:29:16.596Z,35.70
2023-01-27T08:32:07.686Z,35.90
2023-01-27T08:34:52.529Z,35.70
2023-01-27T08:37:38.386Z,35.70
2023-01-27T08:40:15.468Z,35.70
2023-01-27T08:43:04.743Z,35.70
2023-01-27T08:45:50.624Z,35.60
2023-01-27T08:48:32.983Z,35.70
2023-01-27T08:51:26.870Z,36.40
2023-01-27T09:02:46.686Z,35.60
2023-01-27T09:05:48.926Z,35.60
2023-01-27T09:08:39.227Z,35.70
2023-01-27T09:11:38.419Z,35.70
2023-01-27T09:14:41.053Z,35.70
2023-01-27T09:17:46.453Z,35.70
2023-01-27T09:20:46.110Z,35.70
2023-01-27T09:23:29.139Z,35.80
2023-01-27T09:26:34.548Z,35.80
2023-01-27T09:29:43.812Z,35.60
2023-01-27T09:33:20.268Z,35.80
2023-01-27T09:36:25.888Z,35.70
2023-01-27T09:39:12.505Z,35.70
2023-01-27T09:42:43.940Z,35.30
2023-01-27T09:46:14.037Z,35.70
2023-01-27T09:49:38.730Z,35.60
2023-01-27T09:53:07.734Z,35.70
2023-01-27T09:56:35.435Z,35.70
2023-01-27T09:59:38.109Z,35.50
2023-01-27T10:03:08.117Z,35.60
2023-01-27T10:06:38.433Z,35.50
2023-01-27T10:10:17.534Z,35.50
2023-01-27T10:13:42.668Z,36.10
2023-01-27T10:17:05.312Z,35.40
2023-01-27T10:20:16.176Z,35.40
2023-01-27T10:23:26.316Z,35.30
2023-01-27T10:26:38.379Z,35.30
2023-01-27T10:29:30.649Z,35.40
2023-01-27T10:32:32.387Z,35.30
2023-01-27T10:35:35.776Z,35.40
2023-01-27T10:38:35.804Z,35.50
2023-01-27T10:41:34.836Z,35.50
2023-01-27T10:44:48.853Z,35.40
2023-01-27T10:47:56.369Z,35.50
2023-01-27T10:51:02.541Z,35.60
2023-01-27T10:54:18.899Z,35.60
2023-01-27T10:57:20.603Z,35.60
2023-01-27T11:00:41.518Z,35.50
2023-01-27T11:07:02.334Z,35.50
2023-01-27T11:09:56.159Z,35.60
2023-01-27T11:12:57.167Z,35.70
2023-01-27T11:15:38.806Z,35.70
2023-01-27T11:19:23.602Z,35.70
2023-01-27T11:22:41.602Z,35.80
2023-01-27T11:26:02.680Z,36.00
2023-01-27T11:29:08.062Z,36.10
2023-01-27T11:32:04.925Z,36.10
2023-01-27T11:34:52.474Z,36.00
2023-01-27T11:37:42.358Z,36.20
2023-01-27T11:44:08.395Z,36.20
2023-01-27T11:47:13.479Z,36.20
2023-01-27T11:50:13.576Z,36.20
2023-01-27T11:53:25.630Z,36.30
2023-01-27T11:56:14.240Z,36.40
2023-01-27T11:58:55.203Z,36.50
2023-01-27T12:01:49.456Z,36.50
2023-01-27T12:04:31.931Z,36.50
2023-01-27T12:07:23.012Z,36.60
2023-01-27T12:10:20.454Z,36.60
2023-01-27T12:13:50.117Z,36.50
2023-01-27T12:17:32.171Z,36.50
2023-01-27T12:20:31.618Z,36.50
2023-01-27T12:24:09.309Z,36.60
2023-01-27T12:27:04.780Z,36.50
2023-01-27T12:30:01.325Z,36.50
2023-01-27T12:33:30.845Z,36.60
2023-01-27T12:36:56.339Z,36.60
2023-01-27T12:40:11.296Z,36.70
2023-01-27T12:43:07.813Z,36.80
2023-01-27T12:46:27.348Z,37.40
2023-01-27T12:49:35.079Z,36.70
2023-01-27T12:52:38.484Z,36.70
2023-01-27T12:55:57.543Z,36.80
2023-01-27T12:59:01.927Z,36.80
2023-01-27T13:02:02.662Z,36.80
2023-01-27T13:05:02.011Z,36.80
2023-01-27T13:08:26.040Z,36.80
2023-01-27T13:11:26.659Z,36.90
2023-01-27T13:14:32.333Z,36.90
2023-01-27T13:17:34.274Z,36.90
2023-01-27T13:20:27.710Z,36.90
2023-01-27T13:23:32.781Z,36.90
2023-01-27T13:26:30.706Z,37.00
2023-01-27T13:29:26.226Z,37.00
2023-01-27T13:32:15.402Z,37.00
2023-01-27T13:35:20.900Z,37.00
2023-01-27T13:38:32.926Z,37.00
2023-01-27T13:41:44.956Z,37.00
2023-01-27T13:44:44.352Z,37.00
2023-01-27T13:47:44.379Z,37.00
2023-01-27T13:50:39.989Z,36.90
2023-01-27T13:53:23.734Z,37.00
2023-01-27T13:56:23.104Z,37.00
2023-01-27T13:59:32.486Z,37.00
2023-01-27T14:02:39.153Z,37.10
2023-01-27T14:05:50.537Z,37.10
2023-01-27T14:08:55.308Z,37.10
2023-01-27T14:11:57.233Z,37.10
2023-01-27T14:15:02.629Z,37.10
2023-01-27T14:18:02.655Z,37.10
2023-01-27T14:21:41.394Z,37.00
2023-01-27T14:24:45.356Z,37.10
2023-01-27T14:27:45.382Z,37.10
2023-01-27T14:30:51.451Z,37.20
2023-01-27T14:33:51.437Z,37.20
2023-01-27T14:36:57.461Z,37.20
2023-01-27T14:40:11.536Z,37.10
2023-01-27T14:43:16.519Z,37.10
2023-01-27T14:46:32.926Z,37.20
2023-01-27T14:49:39.577Z,37.20
2023-01-27T14:52:56.959Z,37.30
2023-01-27T14:55:59.634Z,37.30
2023-01-27T14:59:15.030Z,37.30
2023-01-27T15:02:27.045Z,37.30
2023-01-27T15:05:15.863Z,37.30
2023-01-27T15:08:15.738Z,37.30
2023-01-27T15:11:15.761Z,37.30
2023-01-27T15:14:39.160Z,37.30
2023-01-27T15:18:03.822Z,37.30
2023-01-27T15:21:26.449Z,37.30
2023-01-27T15:24:33.828Z,37.20
2023-01-27T15:27:33.911Z,37.30
2023-01-27T15:30:35.925Z,37.30
2023-01-27T15:37:48.932Z,37.30
2023-01-27T15:40:32.611Z,37.40
2023-01-27T15:59:25.443Z,37.50
2023-01-27T16:23:30.453Z,37.40
2023-01-27T16:27:25.863Z,37.30
2023-01-27T16:31:09.078Z,37.40
2023-01-27T17:10:34.740Z,37.60
2023-01-27T18:39:11.424Z,37.60
2023-01-27T18:42:37.090Z,37.60
2023-01-27T18:46:05.479Z,37.60
2023-01-27T18:49:25.055Z,37.70
2023-01-27T18:52:48.237Z,37.70
2023-01-27T18:56:12.110Z,37.70
2023-01-27T18:59:18.566Z,37.70
2023-01-27T19:02:48.161Z,37.70
2023-01-27T19:05:54.192Z,37.60
2023-01-27T19:09:11.684Z,37.50
2023-01-27T19:12:18.250Z,37.50
2023-01-27T19:15:24.782Z,37.50
2023-01-27T19:18:29.759Z,37.40
2023-01-27T19:21:36.357Z,37.40
2023-01-27T19:25:05.817Z,37.40
2023-01-27T19:28:17.845Z,37.40
2023-01-27T19:31:18.545Z,38.00
2023-01-27T19:34:29.409Z,37.30
2023-01-27T19:37:48.509Z,37.20
2023-01-27T19:41:07.453Z,37.20
2023-01-27T19:44:23.986Z,37.20
2023-01-27T19:47:36.013Z,37.20
2023-01-27T19:50:54.617Z,37.20
2023-01-27T19:53:56.788Z,37.20
2023-01-27T19:57:18.670Z,37.20
2023-01-27T20:00:42.140Z,37.20
2023-01-27T20:03:48.726Z,37.10
2023-01-27T20:06:55.298Z,37.20
2023-01-27T20:10:06.227Z,37.10
2023-01-27T20:13:30.258Z,37.10
2023-01-27T20:16:36.945Z,37.20
2023-01-27T20:19:49.403Z,37.10
2023-01-27T20:23:06.351Z,37.20
2023-01-27T20:26:19.131Z,37.00
2023-01-27T20:29:37.506Z,37.10
2023-01-27T20:32:48.966Z,37.10
2023-01-27T20:35:54.991Z,37.00
2023-01-27T20:39:01.593Z,37.00
2023-01-27T20:42:18.509Z,37.10
2023-01-27T20:45:37.673Z,37.00
2023-01-27T20:48:43.680Z,37.10
2023-01-27T20:51:54.589Z,37.10
2023-01-27T20:55:06.620Z,37.10
2023-01-27T20:58:13.183Z,37.10
2023-01-27T21:01:31.264Z,37.10
2023-01-27T21:04:37.239Z,36.90
2023-01-27T21:07:37.207Z,36.90
2023-01-27T21:11:01.879Z,36.90
2023-01-27T21:14:39.280Z,36.90
2023-01-27T21:18:13.942Z,36.90
2023-01-27T21:21:43.974Z,36.80
2023-01-27T21:25:08.025Z,36.80
2023-01-27T21:28:37.442Z,36.80
2023-01-27T21:32:14.072Z,36.90
2023-01-27T21:36:02.109Z,36.90
2023-01-27T21:39:19.534Z,36.80
2023-01-27T21:42:32.158Z,36.90
2023-01-27T21:45:31.596Z,36.80
2023-01-27T21:48:35.631Z,36.90
2023-01-27T21:51:44.249Z,36.80
2023-01-27T21:54:53.687Z,36.80
2023-01-27T21:58:01.737Z,36.80
2023-01-27T22:01:02.386Z,36.80
2023-01-27T22:04:07.897Z,36.80
2023-01-27T22:07:20.412Z,36.80
2023-01-27T22:10:25.870Z,36.80
2023-01-27T22:13:32.470Z,36.80
2023-01-27T22:16:35.917Z,36.80
2023-01-27T22:19:43.942Z,36.80
2023-01-27T22:22:55.980Z,36.80
2023-01-27T22:26:08.592Z,36.80
2023-01-27T22:29:14.041Z,36.90
2023-01-27T22:32:20.133Z,36.80
2023-01-27T22:35:26.095Z,36.90
2023-01-27T22:38:36.123Z,36.80
2023-01-27T22:42:00.143Z,36.90
2023-01-27T22:45:36.033Z,36.80
2023-01-27T22:49:00.185Z,36.80
2023-01-27T23:09:36.377Z,36.80
2023-01-27T23:13:42.106Z,36.80
2023-01-27T23:17:36.438Z,36.70
2023-01-27T23:21:00.469Z,36.70
2023-01-27T23:24:41.797Z,36.70
2023-01-27T23:28:24.539Z,36.70
2023-01-27T23:31:54.668Z,36.70
2023-01-27T23:35:30.606Z,36.70
2023-01-27T23:39:06.636Z,36.70
2023-01-27T23:42:48.680Z,36.70
2023-01-27T23:46:18.757Z,36.80
2023-01-27T23:49:42.028Z,36.80
2023-01-27T23:53:00.063Z,36.80
2023-01-27T23:56:06.818Z,36.80
2023-01-27T23:59:54.837Z,36.80
